sensor_id;sensor_type;location;lat;lon;timestamp;P1;durP1;ratioP1;P2;durP2;ratioP2
8100;SDS011;4093;53.470;9.832;2024-02-14T00:01:00;4.10;;;3.47;;
8100;SDS011;4093;53.470;9.832;2024-02-14T00:03:28;3.87;;;2.90;;
8100;SDS011;4093;53.470;9.832;2024-02-14T00:05:56;4.57;;;3.27;;
8100;SDS011;4093;53.470;9.832;2024-02-14T00:08:24;3.63;;;3.07;;
8100;SDS011;4093;53.470;9.832;2024-02-14T00:10:52;3.07;;;2.77;;
8100;SDS011;4093;53.470;9.832;2024-02-14T00:13:21;7.73;;;3.13;;
8100;SDS011;4093;53.470;9.832;2024-02-14T00:15:49;4.43;;;3.47;;
8100;SDS011;4093;53.470;9.832;2024-02-14T00:18:17;4.83;;;3.17;;
8100;SDS011;4093;53.470;9.832;2024-02-14T00:20:45;5.13;;;3.10;;
8100;SDS011;4093;53.470;9.832;2024-02-14T00:23:13;4.90;;;3.00;;
8100;SDS011;4093;53.470;9.832;2024-02-14T00:25:41;4.63;;;3.07;;
8100;SDS011;4093;53.470;9.832;2024-02-14T00:28:09;5.40;;;3.03;;
8100;SDS011;4093;53.470;9.832;2024-02-14T00:30:38;7.77;;;3.30;;
8100;SDS011;4093;53.470;9.832;2024-02-14T00:33:05;5.23;;;3.33;;
8100;SDS011;4093;53.470;9.832;2024-02-14T00:35:34;6.27;;;3.13;;
8100;SDS011;4093;53.470;9.832;2024-02-14T00:38:02;6.73;;;3.77;;
8100;SDS011;4093;53.470;9.832;2024-02-14T00:40:30;5.17;;;3.43;;
8100;SDS011;4093;53.470;9.832;2024-02-14T00:42:58;8.43;;;3.50;;
8100;SDS011;4093;53.470;9.832;2024-02-14T00:45:26;4.70;;;3.10;;
8100;SDS011;4093;53.470;9.832;2024-02-14T00:47:55;5.57;;;3.67;;
8100;SDS011;4093;53.470;9.832;2024-02-14T00:50:23;5.23;;;3.37;;
8100;SDS011;4093;53.470;9.832;2024-02-14T00:52:51;4.30;;;3.20;;
8100;SDS011;4093;53.470;9.832;2024-02-14T00:55:19;5.50;;;3.17;;
8100;SDS011;4093;53.470;9.832;2024-02-14T00:57:47;6.03;;;3.30;;
8100;SDS011;4093;53.470;9.832;2024-02-14T01:00:14;5.90;;;3.50;;
8100;SDS011;4093;53.470;9.832;2024-02-14T01:02:43;4.87;;;3.23;;
8100;SDS011;4093;53.470;9.832;2024-02-14T01:05:12;5.33;;;3.63;;
8100;SDS011;4093;53.470;9.832;2024-02-14T01:07:40;4.90;;;3.60;;
8100;SDS011;4093;53.470;9.832;2024-02-14T01:10:08;4.90;;;3.77;;
8100;SDS011;4093;53.470;9.832;2024-02-14T01:12:36;6.37;;;3.57;;
8100;SDS011;4093;53.470;9.832;2024-02-14T01:15:04;6.13;;;3.97;;
8100;SDS011;4093;53.470;9.832;2024-02-14T01:17:33;4.23;;;3.83;;
8100;SDS011;4093;53.470;9.832;2024-02-14T01:20:02;4.97;;;3.90;;
8100;SDS011;4093;53.470;9.832;2024-02-14T01:22:32;8.03;;;3.87;;
8100;SDS011;4093;53.470;9.832;2024-02-14T01:25:00;4.50;;;3.80;;
8100;SDS011;4093;53.470;9.832;2024-02-14T01:27:29;6.13;;;4.03;;
8100;SDS011;4093;53.470;9.832;2024-02-14T01:29:57;7.73;;;4.50;;
8100;SDS011;4093;53.470;9.832;2024-02-14T01:32:25;4.97;;;4.47;;
8100;SDS011;4093;53.470;9.832;2024-02-14T01:34:56;6.83;;;4.50;;
8100;SDS011;4093;53.470;9.832;2024-02-14T01:37:24;5.40;;;4.60;;
8100;SDS011;4093;53.470;9.832;2024-02-14T01:39:53;6.47;;;4.60;;
8100;SDS011;4093;53.470;9.832;2024-02-14T01:42:21;7.17;;;4.67;;
8100;SDS011;4093;53.470;9.832;2024-02-14T01:44:48;6.67;;;4.37;;
8100;SDS011;4093;53.470;9.832;2024-02-14T01:47:17;8.47;;;4.63;;
8100;SDS011;4093;53.470;9.832;2024-02-14T01:49:45;6.30;;;4.60;;
8100;SDS011;4093;53.470;9.832;2024-02-14T01:52:13;6.13;;;4.30;;
8100;SDS011;4093;53.470;9.832;2024-02-14T01:54:42;5.47;;;4.77;;
8100;SDS011;4093;53.470;9.832;2024-02-14T01:57:12;7.30;;;4.40;;
8100;SDS011;4093;53.470;9.832;2024-02-14T01:59:40;8.07;;;4.87;;
8100;SDS011;4093;53.470;9.832;2024-02-14T02:02:08;8.07;;;5.37;;
8100;SDS011;4093;53.470;9.832;2024-02-14T02:04:36;7.00;;;4.80;;
8100;SDS011;4093;53.470;9.832;2024-02-14T02:07:03;7.00;;;4.77;;
8100;SDS011;4093;53.470;9.832;2024-02-14T02:09:31;6.17;;;5.10;;
8100;SDS011;4093;53.470;9.832;2024-02-14T02:12:00;7.30;;;5.03;;
8100;SDS011;4093;53.470;9.832;2024-02-14T02:14:29;5.20;;;4.70;;
8100;SDS011;4093;53.470;9.832;2024-02-14T02:16:57;7.07;;;5.20;;
8100;SDS011;4093;53.470;9.832;2024-02-14T02:19:25;11.60;;;5.67;;
8100;SDS011;4093;53.470;9.832;2024-02-14T02:21:52;7.20;;;5.77;;
8100;SDS011;4093;53.470;9.832;2024-02-14T02:24:21;6.33;;;4.90;;
8100;SDS011;4093;53.470;9.832;2024-02-14T02:26:49;7.43;;;5.27;;
8100;SDS011;4093;53.470;9.832;2024-02-14T02:29:17;6.77;;;5.20;;
8100;SDS011;4093;53.470;9.832;2024-02-14T02:31:46;8.60;;;5.27;;
8100;SDS011;4093;53.470;9.832;2024-02-14T02:34:14;9.03;;;5.37;;
8100;SDS011;4093;53.470;9.832;2024-02-14T02:36:42;7.30;;;5.00;;
8100;SDS011;4093;53.470;9.832;2024-02-14T02:39:12;5.97;;;5.37;;
8100;SDS011;4093;53.470;9.832;2024-02-14T02:41:41;8.33;;;5.40;;
8100;SDS011;4093;53.470;9.832;2024-02-14T02:44:14;7.07;;;5.20;;
8100;SDS011;4093;53.470;9.832;2024-02-14T02:46:42;10.40;;;4.73;;
8100;SDS011;4093;53.470;9.832;2024-02-14T02:49:12;6.37;;;4.67;;
8100;SDS011;4093;53.470;9.832;2024-02-14T02:51:41;6.60;;;4.83;;
8100;SDS011;4093;53.470;9.832;2024-02-14T02:54:09;5.50;;;4.73;;
8100;SDS011;4093;53.470;9.832;2024-02-14T02:56:37;8.33;;;5.03;;
8100;SDS011;4093;53.470;9.832;2024-02-14T02:59:08;7.57;;;4.90;;
8100;SDS011;4093;53.470;9.832;2024-02-14T03:01:36;7.13;;;5.10;;
8100;SDS011;4093;53.470;9.832;2024-02-14T03:04:04;6.13;;;4.70;;
8100;SDS011;4093;53.470;9.832;2024-02-14T03:06:31;7.27;;;5.03;;
8100;SDS011;4093;53.470;9.832;2024-02-14T03:08:59;6.67;;;5.63;;
8100;SDS011;4093;53.470;9.832;2024-02-14T03:11:27;5.60;;;5.00;;
8100;SDS011;4093;53.470;9.832;2024-02-14T03:13:55;5.77;;;5.00;;
8100;SDS011;4093;53.470;9.832;2024-02-14T03:16:24;5.90;;;4.80;;
8100;SDS011;4093;53.470;9.832;2024-02-14T03:18:53;9.00;;;5.70;;
8100;SDS011;4093;53.470;9.832;2024-02-14T03:21:21;7.90;;;5.23;;
8100;SDS011;4093;53.470;9.832;2024-02-14T03:23:49;7.27;;;5.57;;
8100;SDS011;4093;53.470;9.832;2024-02-14T03:26:17;7.77;;;5.37;;
8100;SDS011;4093;53.470;9.832;2024-02-14T03:28:44;8.87;;;5.23;;
8100;SDS011;4093;53.470;9.832;2024-02-14T03:31:12;6.00;;;5.20;;
8100;SDS011;4093;53.470;9.832;2024-02-14T03:33:43;6.97;;;4.77;;
8100;SDS011;4093;53.470;9.832;2024-02-14T03:36:11;9.83;;;5.57;;
8100;SDS011;4093;53.470;9.832;2024-02-14T03:38:39;8.53;;;5.27;;
8100;SDS011;4093;53.470;9.832;2024-02-14T03:41:07;8.00;;;4.80;;
8100;SDS011;4093;53.470;9.832;2024-02-14T03:43:35;8.07;;;6.00;;
8100;SDS011;4093;53.470;9.832;2024-02-14T03:46:03;7.10;;;5.20;;
8100;SDS011;4093;53.470;9.832;2024-02-14T03:48:31;9.03;;;5.70;;
8100;SDS011;4093;53.470;9.832;2024-02-14T03:51:01;5.70;;;5.10;;
8100;SDS011;4093;53.470;9.832;2024-02-14T03:53:29;7.63;;;5.47;;
8100;SDS011;4093;53.470;9.832;2024-02-14T03:55:57;6.17;;;4.93;;
8100;SDS011;4093;53.470;9.832;2024-02-14T03:58:25;9.17;;;5.50;;
8100;SDS011;4093;53.470;9.832;2024-02-14T04:00:53;5.70;;;4.97;;
8100;SDS011;4093;53.470;9.832;2024-02-14T04:03:21;8.80;;;5.40;;
8100;SDS011;4093;53.470;9.832;2024-02-14T04:05:49;8.53;;;4.90;;
8100;SDS011;4093;53.470;9.832;2024-02-14T04:08:18;7.47;;;5.00;;
8100;SDS011;4093;53.470;9.832;2024-02-14T04:10:46;6.50;;;5.00;;
8100;SDS011;4093;53.470;9.832;2024-02-14T04:13:15;6.90;;;5.30;;
8100;SDS011;4093;53.470;9.832;2024-02-14T04:15:44;7.80;;;5.70;;
8100;SDS011;4093;53.470;9.832;2024-02-14T04:18:13;7.50;;;4.90;;
8100;SDS011;4093;53.470;9.832;2024-02-14T04:20:44;7.50;;;5.43;;
8100;SDS011;4093;53.470;9.832;2024-02-14T04:23:12;7.03;;;5.30;;
8100;SDS011;4093;53.470;9.832;2024-02-14T04:25:41;9.37;;;6.07;;
8100;SDS011;4093;53.470;9.832;2024-02-14T04:28:09;9.10;;;5.50;;
8100;SDS011;4093;53.470;9.832;2024-02-14T04:30:38;8.03;;;5.70;;
8100;SDS011;4093;53.470;9.832;2024-02-14T04:33:08;7.90;;;6.07;;
8100;SDS011;4093;53.470;9.832;2024-02-14T04:35:40;6.47;;;5.83;;
8100;SDS011;4093;53.470;9.832;2024-02-14T04:38:08;9.50;;;6.33;;
8100;SDS011;4093;53.470;9.832;2024-02-14T04:40:36;10.30;;;6.30;;
8100;SDS011;4093;53.470;9.832;2024-02-14T04:43:05;8.90;;;6.10;;
8100;SDS011;4093;53.470;9.832;2024-02-14T04:45:33;11.43;;;6.77;;
8100;SDS011;4093;53.470;9.832;2024-02-14T04:48:02;6.77;;;6.07;;
8100;SDS011;4093;53.470;9.832;2024-02-14T04:50:30;10.70;;;6.50;;
8100;SDS011;4093;53.470;9.832;2024-02-14T04:52:58;8.60;;;6.30;;
8100;SDS011;4093;53.470;9.832;2024-02-14T04:55:26;7.23;;;5.83;;
8100;SDS011;4093;53.470;9.832;2024-02-14T04:57:55;8.43;;;6.33;;
8100;SDS011;4093;53.470;9.832;2024-02-14T05:00:24;6.80;;;5.87;;
8100;SDS011;4093;53.470;9.832;2024-02-14T05:02:52;8.67;;;5.93;;
8100;SDS011;4093;53.470;9.832;2024-02-14T05:05:20;6.93;;;5.57;;
8100;SDS011;4093;53.470;9.832;2024-02-14T05:07:48;8.27;;;5.70;;
8100;SDS011;4093;53.470;9.832;2024-02-14T05:10:15;6.13;;;5.53;;
8100;SDS011;4093;53.470;9.832;2024-02-14T05:12:43;6.10;;;5.17;;
8100;SDS011;4093;53.470;9.832;2024-02-14T05:15:11;6.60;;;5.80;;
8100;SDS011;4093;53.470;9.832;2024-02-14T05:17:42;6.73;;;6.03;;
8100;SDS011;4093;53.470;9.832;2024-02-14T05:20:11;7.40;;;5.80;;
8100;SDS011;4093;53.470;9.832;2024-02-14T05:22:39;6.13;;;5.43;;
8100;SDS011;4093;53.470;9.832;2024-02-14T05:25:07;6.00;;;5.40;;
8100;SDS011;4093;53.470;9.832;2024-02-14T05:27:35;6.33;;;5.40;;
8100;SDS011;4093;53.470;9.832;2024-02-14T05:30:04;5.70;;;5.10;;
8100;SDS011;4093;53.470;9.832;2024-02-14T05:32:33;5.93;;;5.33;;
8100;SDS011;4093;53.470;9.832;2024-02-14T05:35:02;6.20;;;5.10;;
8100;SDS011;4093;53.470;9.832;2024-02-14T05:37:32;6.03;;;4.83;;
8100;SDS011;4093;53.470;9.832;2024-02-14T05:40:04;5.40;;;4.90;;
8100;SDS011;4093;53.470;9.832;2024-02-14T05:42:33;6.90;;;5.03;;
8100;SDS011;4093;53.470;9.832;2024-02-14T05:45:01;5.40;;;4.90;;
8100;SDS011;4093;53.470;9.832;2024-02-14T05:47:30;6.17;;;5.20;;
8100;SDS011;4093;53.470;9.832;2024-02-14T05:49:58;5.90;;;5.00;;
8100;SDS011;4093;53.470;9.832;2024-02-14T05:52:27;5.53;;;5.00;;
8100;SDS011;4093;53.470;9.832;2024-02-14T05:54:55;5.33;;;4.80;;
8100;SDS011;4093;53.470;9.832;2024-02-14T05:57:23;6.43;;;4.70;;
8100;SDS011;4093;53.470;9.832;2024-02-14T05:59:51;4.97;;;4.50;;
8100;SDS011;4093;53.470;9.832;2024-02-14T06:02:19;5.23;;;4.70;;
8100;SDS011;4093;53.470;9.832;2024-02-14T06:04:47;6.03;;;4.97;;
8100;SDS011;4093;53.470;9.832;2024-02-14T06:07:15;6.30;;;5.27;;
8100;SDS011;4093;53.470;9.832;2024-02-14T06:09:44;5.40;;;4.90;;
8100;SDS011;4093;53.470;9.832;2024-02-14T06:12:12;6.37;;;5.40;;
8100;SDS011;4093;53.470;9.832;2024-02-14T06:14:40;5.60;;;5.10;;
8100;SDS011;4093;53.470;9.832;2024-02-14T06:17:08;6.43;;;4.90;;
8100;SDS011;4093;53.470;9.832;2024-02-14T06:19:36;6.53;;;5.60;;
8100;SDS011;4093;53.470;9.832;2024-02-14T06:22:06;6.83;;;6.03;;
8100;SDS011;4093;53.470;9.832;2024-02-14T06:24:34;5.73;;;5.13;;
8100;SDS011;4093;53.470;9.832;2024-02-14T06:27:03;5.93;;;5.33;;
8100;SDS011;4093;53.470;9.832;2024-02-14T06:29:31;6.43;;;5.70;;
8100;SDS011;4093;53.470;9.832;2024-02-14T06:31:59;7.63;;;5.70;;
8100;SDS011;4093;53.470;9.832;2024-02-14T06:34:27;7.23;;;5.63;;
8100;SDS011;4093;53.470;9.832;2024-02-14T06:36:55;6.90;;;6.10;;
8100;SDS011;4093;53.470;9.832;2024-02-14T06:39:23;6.97;;;6.23;;
8100;SDS011;4093;53.470;9.832;2024-02-14T06:41:51;7.33;;;6.57;;
8100;SDS011;4093;53.470;9.832;2024-02-14T06:44:20;7.97;;;6.37;;
8100;SDS011;4093;53.470;9.832;2024-02-14T06:46:48;10.13;;;6.93;;
8100;SDS011;4093;53.470;9.832;2024-02-14T06:49:16;7.80;;;6.67;;
8100;SDS011;4093;53.470;9.832;2024-02-14T06:51:44;8.17;;;6.63;;
8100;SDS011;4093;53.470;9.832;2024-02-14T06:54:12;8.33;;;6.37;;
8100;SDS011;4093;53.470;9.832;2024-02-14T06:56:40;8.57;;;7.10;;
8100;SDS011;4093;53.470;9.832;2024-02-14T06:59:07;9.57;;;6.97;;
8100;SDS011;4093;53.470;9.832;2024-02-14T07:01:36;7.13;;;6.30;;
8100;SDS011;4093;53.470;9.832;2024-02-14T07:04:04;7.93;;;6.13;;
8100;SDS011;4093;53.470;9.832;2024-02-14T07:06:32;7.57;;;6.70;;
8100;SDS011;4093;53.470;9.832;2024-02-14T07:09:00;8.10;;;7.30;;
8100;SDS011;4093;53.470;9.832;2024-02-14T07:11:28;9.00;;;6.53;;
8100;SDS011;4093;53.470;9.832;2024-02-14T07:13:56;7.23;;;6.20;;
8100;SDS011;4093;53.470;9.832;2024-02-14T07:16:23;7.90;;;6.47;;
8100;SDS011;4093;53.470;9.832;2024-02-14T07:18:53;8.20;;;6.13;;
8100;SDS011;4093;53.470;9.832;2024-02-14T07:21:22;8.70;;;6.37;;
8100;SDS011;4093;53.470;9.832;2024-02-14T07:23:49;7.00;;;6.07;;
8100;SDS011;4093;53.470;9.832;2024-02-14T07:26:18;9.67;;;7.40;;
8100;SDS011;4093;53.470;9.832;2024-02-14T07:28:46;7.60;;;6.37;;
8100;SDS011;4093;53.470;9.832;2024-02-14T07:31:14;8.67;;;7.60;;
8100;SDS011;4093;53.470;9.832;2024-02-14T07:33:42;7.53;;;6.73;;
8100;SDS011;4093;53.470;9.832;2024-02-14T07:36:12;7.17;;;6.47;;
8100;SDS011;4093;53.470;9.832;2024-02-14T07:38:41;7.70;;;6.63;;
8100;SDS011;4093;53.470;9.832;2024-02-14T07:41:09;7.97;;;6.90;;
8100;SDS011;4093;53.470;9.832;2024-02-14T07:43:37;9.03;;;6.93;;
8100;SDS011;4093;53.470;9.832;2024-02-14T07:46:05;9.37;;;6.90;;
8100;SDS011;4093;53.470;9.832;2024-02-14T07:48:33;10.60;;;7.33;;
8100;SDS011;4093;53.470;9.832;2024-02-14T07:51:01;9.13;;;7.20;;
8100;SDS011;4093;53.470;9.832;2024-02-14T07:53:30;8.80;;;7.07;;
8100;SDS011;4093;53.470;9.832;2024-02-14T07:55:58;9.33;;;7.70;;
8100;SDS011;4093;53.470;9.832;2024-02-14T07:58:26;10.37;;;7.57;;
8100;SDS011;4093;53.470;9.832;2024-02-14T08:00:53;9.43;;;7.83;;
8100;SDS011;4093;53.470;9.832;2024-02-14T08:03:21;9.07;;;7.43;;
8100;SDS011;4093;53.470;9.832;2024-02-14T08:05:50;10.20;;;7.83;;
8100;SDS011;4093;53.470;9.832;2024-02-14T08:08:18;9.47;;;8.20;;
8100;SDS011;4093;53.470;9.832;2024-02-14T08:10:48;8.27;;;7.23;;
8100;SDS011;4093;53.470;9.832;2024-02-14T08:13:16;11.77;;;8.33;;
8100;SDS011;4093;53.470;9.832;2024-02-14T08:15:44;9.17;;;7.90;;
8100;SDS011;4093;53.470;9.832;2024-02-14T08:18:12;8.83;;;7.57;;
8100;SDS011;4093;53.470;9.832;2024-02-14T08:20:40;10.30;;;8.23;;
8100;SDS011;4093;53.470;9.832;2024-02-14T08:23:07;13.00;;;9.10;;
8100;SDS011;4093;53.470;9.832;2024-02-14T08:25:35;10.67;;;7.60;;
8100;SDS011;4093;53.470;9.832;2024-02-14T08:28:05;11.23;;;7.83;;
8100;SDS011;4093;53.470;9.832;2024-02-14T08:30:34;10.00;;;7.63;;
8100;SDS011;4093;53.470;9.832;2024-02-14T08:33:01;9.70;;;8.40;;
8100;SDS011;4093;53.470;9.832;2024-02-14T08:35:29;9.60;;;7.70;;
8100;SDS011;4093;53.470;9.832;2024-02-14T08:37:59;10.27;;;8.17;;
8100;SDS011;4093;53.470;9.832;2024-02-14T08:40:26;9.97;;;8.33;;
8100;SDS011;4093;53.470;9.832;2024-02-14T08:42:54;10.90;;;8.50;;
8100;SDS011;4093;53.470;9.832;2024-02-14T08:45:23;9.90;;;8.47;;
8100;SDS011;4093;53.470;9.832;2024-02-14T08:47:51;10.73;;;8.93;;
8100;SDS011;4093;53.470;9.832;2024-02-14T08:50:19;21.73;;;13.83;;
8100;SDS011;4093;53.470;9.832;2024-02-14T08:52:47;13.17;;;8.77;;
8100;SDS011;4093;53.470;9.832;2024-02-14T08:55:15;10.17;;;8.30;;
8100;SDS011;4093;53.470;9.832;2024-02-14T08:57:44;10.20;;;8.43;;
8100;SDS011;4093;53.470;9.832;2024-02-14T09:00:14;10.47;;;8.33;;
8100;SDS011;4093;53.470;9.832;2024-02-14T09:02:47;10.77;;;8.87;;
8100;SDS011;4093;53.470;9.832;2024-02-14T09:05:16;10.90;;;8.90;;
8100;SDS011;4093;53.470;9.832;2024-02-14T09:07:45;10.43;;;9.03;;
8100;SDS011;4093;53.470;9.832;2024-02-14T09:10:12;10.33;;;8.07;;
8100;SDS011;4093;53.470;9.832;2024-02-14T09:12:40;8.77;;;7.43;;
8100;SDS011;4093;53.470;9.832;2024-02-14T09:15:09;12.00;;;9.20;;
8100;SDS011;4093;53.470;9.832;2024-02-14T09:17:38;10.00;;;8.23;;
8100;SDS011;4093;53.470;9.832;2024-02-14T09:20:08;10.80;;;8.43;;
8100;SDS011;4093;53.470;9.832;2024-02-14T09:22:37;8.60;;;7.63;;
8100;SDS011;4093;53.470;9.832;2024-02-14T09:25:07;10.07;;;8.23;;
8100;SDS011;4093;53.470;9.832;2024-02-14T09:27:36;11.40;;;8.60;;
8100;SDS011;4093;53.470;9.832;2024-02-14T09:30:04;10.03;;;8.43;;
8100;SDS011;4093;53.470;9.832;2024-02-14T09:32:33;9.17;;;7.50;;
8100;SDS011;4093;53.470;9.832;2024-02-14T09:35:01;10.40;;;8.53;;
8100;SDS011;4093;53.470;9.832;2024-02-14T09:37:34;9.40;;;7.90;;
8100;SDS011;4093;53.470;9.832;2024-02-14T09:40:04;11.23;;;8.53;;
8100;SDS011;4093;53.470;9.832;2024-02-14T09:42:35;9.00;;;7.63;;
8100;SDS011;4093;53.470;9.832;2024-02-14T09:45:07;9.93;;;7.67;;
8100;SDS011;4093;53.470;9.832;2024-02-14T09:47:39;10.00;;;8.27;;
8100;SDS011;4093;53.470;9.832;2024-02-14T09:50:08;8.73;;;7.27;;
8100;SDS011;4093;53.470;9.832;2024-02-14T09:52:41;8.47;;;6.97;;
8100;SDS011;4093;53.470;9.832;2024-02-14T09:55:10;10.20;;;7.27;;
8100;SDS011;4093;53.470;9.832;2024-02-14T09:57:40;9.37;;;7.83;;
8100;SDS011;4093;53.470;9.832;2024-02-14T10:00:09;9.20;;;7.20;;
8100;SDS011;4093;53.470;9.832;2024-02-14T10:02:38;8.30;;;6.83;;
8100;SDS011;4093;53.470;9.832;2024-02-14T10:05:06;8.70;;;6.97;;
8100;SDS011;4093;53.470;9.832;2024-02-14T10:07:42;8.40;;;7.23;;
8100;SDS011;4093;53.470;9.832;2024-02-14T10:10:11;7.60;;;6.67;;
8100;SDS011;4093;53.470;9.832;2024-02-14T10:12:41;10.20;;;7.27;;
8100;SDS011;4093;53.470;9.832;2024-02-14T10:15:09;7.70;;;6.90;;
8100;SDS011;4093;53.470;9.832;2024-02-14T10:17:38;7.77;;;6.30;;
8100;SDS011;4093;53.470;9.832;2024-02-14T10:20:09;8.03;;;7.13;;
8100;SDS011;4093;53.470;9.832;2024-02-14T10:22:37;6.57;;;5.80;;
8100;SDS011;4093;53.470;9.832;2024-02-14T10:25:07;9.17;;;6.87;;
8100;SDS011;4093;53.470;9.832;2024-02-14T10:27:36;7.47;;;6.67;;
8100;SDS011;4093;53.470;9.832;2024-02-14T10:30:04;7.73;;;6.60;;
8100;SDS011;4093;53.470;9.832;2024-02-14T10:32:35;7.47;;;6.17;;
8100;SDS011;4093;53.470;9.832;2024-02-14T10:35:04;7.07;;;5.87;;
8100;SDS011;4093;53.470;9.832;2024-02-14T10:37:35;6.70;;;5.70;;
8100;SDS011;4093;53.470;9.832;2024-02-14T10:40:04;6.33;;;5.67;;
8100;SDS011;4093;53.470;9.832;2024-02-14T10:42:34;7.00;;;6.03;;
8100;SDS011;4093;53.470;9.832;2024-02-14T10:45:02;7.53;;;6.10;;
8100;SDS011;4093;53.470;9.832;2024-02-14T10:47:34;7.33;;;6.60;;
8100;SDS011;4093;53.470;9.832;2024-02-14T10:50:04;8.20;;;7.17;;
8100;SDS011;4093;53.470;9.832;2024-02-14T10:52:36;7.23;;;6.30;;
8100;SDS011;4093;53.470;9.832;2024-02-14T10:55:07;8.00;;;6.83;;
8100;SDS011;4093;53.470;9.832;2024-02-14T10:57:39;8.00;;;7.20;;
8100;SDS011;4093;53.470;9.832;2024-02-14T11:00:08;11.10;;;7.53;;
8100;SDS011;4093;53.470;9.832;2024-02-14T11:02:40;9.57;;;7.50;;
8100;SDS011;4093;53.470;9.832;2024-02-14T11:05:11;9.07;;;7.20;;
8100;SDS011;4093;53.470;9.832;2024-02-14T11:07:44;9.67;;;7.50;;
8100;SDS011;4093;53.470;9.832;2024-02-14T11:10:13;10.13;;;8.33;;
8100;SDS011;4093;53.470;9.832;2024-02-14T11:12:43;8.47;;;7.37;;
8100;SDS011;4093;53.470;9.832;2024-02-14T11:15:11;10.03;;;7.77;;
8100;SDS011;4093;53.470;9.832;2024-02-14T11:17:43;9.10;;;7.60;;
8100;SDS011;4093;53.470;9.832;2024-02-14T11:20:13;10.17;;;8.17;;
8100;SDS011;4093;53.470;9.832;2024-02-14T11:22:55;10.00;;;7.67;;
8100;SDS011;4093;53.470;9.832;2024-02-14T11:25:28;8.83;;;7.37;;
8100;SDS011;4093;53.470;9.832;2024-02-14T11:27:59;10.27;;;8.20;;
8100;SDS011;4093;53.470;9.832;2024-02-14T11:30:29;10.00;;;7.57;;
8100;SDS011;4093;53.470;9.832;2024-02-14T11:33:13;9.67;;;7.50;;
8100;SDS011;4093;53.470;9.832;2024-02-14T11:35:42;8.90;;;8.00;;
8100;SDS011;4093;53.470;9.832;2024-02-14T11:38:11;8.53;;;7.13;;
8100;SDS011;4093;53.470;9.832;2024-02-14T11:40:40;8.80;;;7.17;;
8100;SDS011;4093;53.470;9.832;2024-02-14T11:43:12;8.77;;;7.60;;
8100;SDS011;4093;53.470;9.832;2024-02-14T11:45:41;9.90;;;7.27;;
8100;SDS011;4093;53.470;9.832;2024-02-14T11:48:10;9.90;;;7.83;;
8100;SDS011;4093;53.470;9.832;2024-02-14T11:50:39;8.97;;;7.67;;
8100;SDS011;4093;53.470;9.832;2024-02-14T11:53:09;10.17;;;8.03;;
8100;SDS011;4093;53.470;9.832;2024-02-14T11:55:38;10.80;;;7.47;;
8100;SDS011;4093;53.470;9.832;2024-02-14T11:58:06;10.60;;;7.60;;
8100;SDS011;4093;53.470;9.832;2024-02-14T12:00:38;10.70;;;8.20;;
8100;SDS011;4093;53.470;9.832;2024-02-14T12:03:12;12.23;;;9.10;;
8100;SDS011;4093;53.470;9.832;2024-02-14T12:05:40;11.70;;;8.90;;
8100;SDS011;4093;53.470;9.832;2024-02-14T12:08:10;13.63;;;9.27;;
8100;SDS011;4093;53.470;9.832;2024-02-14T12:10:41;14.90;;;9.73;;
8100;SDS011;4093;53.470;9.832;2024-02-14T12:13:13;15.87;;;10.17;;
8100;SDS011;4093;53.470;9.832;2024-02-14T12:15:46;16.03;;;12.30;;
8100;SDS011;4093;53.470;9.832;2024-02-14T12:18:17;14.27;;;11.10;;
8100;SDS011;4093;53.470;9.832;2024-02-14T12:20:47;16.27;;;12.20;;
8100;SDS011;4093;53.470;9.832;2024-02-14T12:23:21;17.93;;;12.63;;
8100;SDS011;4093;53.470;9.832;2024-02-14T12:25:53;18.77;;;12.30;;
8100;SDS011;4093;53.470;9.832;2024-02-14T12:28:20;19.80;;;12.90;;
8100;SDS011;4093;53.470;9.832;2024-02-14T12:30:50;17.87;;;12.33;;
8100;SDS011;4093;53.470;9.832;2024-02-14T12:33:23;19.83;;;14.17;;
8100;SDS011;4093;53.470;9.832;2024-02-14T12:35:53;19.83;;;13.47;;
8100;SDS011;4093;53.470;9.832;2024-02-14T12:38:21;20.97;;;13.57;;
8100;SDS011;4093;53.470;9.832;2024-02-14T12:40:50;21.93;;;13.20;;
8100;SDS011;4093;53.470;9.832;2024-02-14T12:43:20;20.53;;;14.10;;
8100;SDS011;4093;53.470;9.832;2024-02-14T12:45:49;19.80;;;13.23;;
8100;SDS011;4093;53.470;9.832;2024-02-14T12:48:21;18.23;;;12.80;;
8100;SDS011;4093;53.470;9.832;2024-02-14T12:50:53;21.13;;;13.27;;
8100;SDS011;4093;53.470;9.832;2024-02-14T12:53:21;19.57;;;12.40;;
8100;SDS011;4093;53.470;9.832;2024-02-14T12:55:50;16.00;;;11.97;;
8100;SDS011;4093;53.470;9.832;2024-02-14T12:58:18;15.67;;;11.47;;
8100;SDS011;4093;53.470;9.832;2024-02-14T13:00:46;15.17;;;11.67;;
8100;SDS011;4093;53.470;9.832;2024-02-14T13:03:16;15.03;;;11.10;;
8100;SDS011;4093;53.470;9.832;2024-02-14T13:05:44;15.50;;;11.03;;
8100;SDS011;4093;53.470;9.832;2024-02-14T13:08:14;14.43;;;10.83;;
8100;SDS011;4093;53.470;9.832;2024-02-14T13:10:43;14.73;;;11.13;;
8100;SDS011;4093;53.470;9.832;2024-02-14T13:13:11;13.17;;;10.20;;
8100;SDS011;4093;53.470;9.832;2024-02-14T13:15:40;16.77;;;11.23;;
8100;SDS011;4093;53.470;9.832;2024-02-14T13:18:10;15.60;;;10.73;;
8100;SDS011;4093;53.470;9.832;2024-02-14T13:20:39;15.00;;;10.40;;
8100;SDS011;4093;53.470;9.832;2024-02-14T13:23:08;14.93;;;10.80;;
8100;SDS011;4093;53.470;9.832;2024-02-14T13:25:37;15.43;;;11.03;;
8100;SDS011;4093;53.470;9.832;2024-02-14T13:28:05;14.07;;;10.90;;
8100;SDS011;4093;53.470;9.832;2024-02-14T13:30:33;14.53;;;11.43;;
8100;SDS011;4093;53.470;9.832;2024-02-14T13:33:04;17.20;;;11.40;;
8100;SDS011;4093;53.470;9.832;2024-02-14T13:35:32;18.23;;;11.53;;
8100;SDS011;4093;53.470;9.832;2024-02-14T13:38:05;15.87;;;11.57;;
8100;SDS011;4093;53.470;9.832;2024-02-14T13:40:35;17.57;;;12.17;;
8100;SDS011;4093;53.470;9.832;2024-02-14T13:43:03;18.03;;;11.13;;
8100;SDS011;4093;53.470;9.832;2024-02-14T13:45:39;15.60;;;11.80;;
8100;SDS011;4093;53.470;9.832;2024-02-14T13:48:09;15.80;;;10.57;;
8100;SDS011;4093;53.470;9.832;2024-02-14T13:50:38;16.30;;;11.73;;
8100;SDS011;4093;53.470;9.832;2024-02-14T13:53:07;17.83;;;11.60;;
8100;SDS011;4093;53.470;9.832;2024-02-14T13:55:35;15.70;;;10.70;;
8100;SDS011;4093;53.470;9.832;2024-02-14T13:58:03;14.97;;;11.13;;
8100;SDS011;4093;53.470;9.832;2024-02-14T14:00:32;16.50;;;11.13;;
8100;SDS011;4093;53.470;9.832;2024-02-14T14:03:00;14.27;;;10.60;;
8100;SDS011;4093;53.470;9.832;2024-02-14T14:05:28;13.00;;;10.27;;
8100;SDS011;4093;53.470;9.832;2024-02-14T14:07:56;14.83;;;9.97;;
8100;SDS011;4093;53.470;9.832;2024-02-14T14:10:27;15.70;;;9.87;;
8100;SDS011;4093;53.470;9.832;2024-02-14T14:12:55;14.73;;;10.17;;
8100;SDS011;4093;53.470;9.832;2024-02-14T14:15:23;14.80;;;9.93;;
8100;SDS011;4093;53.470;9.832;2024-02-14T14:17:52;14.80;;;11.03;;
8100;SDS011;4093;53.470;9.832;2024-02-14T14:20:20;13.00;;;10.03;;
8100;SDS011;4093;53.470;9.832;2024-02-14T14:22:49;14.43;;;11.13;;
8100;SDS011;4093;53.470;9.832;2024-02-14T14:25:16;13.67;;;11.10;;
8100;SDS011;4093;53.470;9.832;2024-02-14T14:27:46;14.93;;;10.63;;
8100;SDS011;4093;53.470;9.832;2024-02-14T14:30:14;16.63;;;12.73;;
8100;SDS011;4093;53.470;9.832;2024-02-14T14:32:41;15.27;;;11.23;;
8100;SDS011;4093;53.470;9.832;2024-02-14T14:35:09;15.17;;;11.13;;
8100;SDS011;4093;53.470;9.832;2024-02-14T14:37:38;15.63;;;10.90;;
8100;SDS011;4093;53.470;9.832;2024-02-14T14:40:06;14.83;;;10.90;;
8100;SDS011;4093;53.470;9.832;2024-02-14T14:42:36;16.60;;;12.20;;
8100;SDS011;4093;53.470;9.832;2024-02-14T14:45:06;14.77;;;11.23;;
8100;SDS011;4093;53.470;9.832;2024-02-14T14:47:34;11.80;;;9.13;;
8100;SDS011;4093;53.470;9.832;2024-02-14T14:50:02;16.37;;;10.00;;
8100;SDS011;4093;53.470;9.832;2024-02-14T14:52:31;13.20;;;9.73;;
8100;SDS011;4093;53.470;9.832;2024-02-14T14:54:59;12.53;;;9.50;;
8100;SDS011;4093;53.470;9.832;2024-02-14T14:57:26;12.70;;;9.23;;
8100;SDS011;4093;53.470;9.832;2024-02-14T14:59:54;11.57;;;9.20;;
8100;SDS011;4093;53.470;9.832;2024-02-14T15:02:23;13.47;;;9.27;;
8100;SDS011;4093;53.470;9.832;2024-02-14T15:04:52;12.10;;;9.87;;
8100;SDS011;4093;53.470;9.832;2024-02-14T15:07:19;12.20;;;9.13;;
8100;SDS011;4093;53.470;9.832;2024-02-14T15:09:47;11.60;;;8.77;;
8100;SDS011;4093;53.470;9.832;2024-02-14T15:12:15;11.37;;;8.00;;
8100;SDS011;4093;53.470;9.832;2024-02-14T15:14:43;11.03;;;8.67;;
8100;SDS011;4093;53.470;9.832;2024-02-14T15:17:09;12.47;;;8.90;;